createdAt,value
2022-09-16T00:00:57.973Z,99837.97
2022-09-16T00:03:25.470Z,99830.59
2022-09-16T00:05:53.888Z,99839.13
2022-09-16T00:08:22.211Z,99834.88
2022-09-16T00:10:49.350Z,99843.88
2022-09-16T00:13:16.581Z,99836.09
2022-09-16T00:15:51.345Z,99834.88
2022-09-16T00:18:20.483Z,99843.97
2022-09-16T00:20:54.760Z,99836.47
2022-09-16T00:23:21.798Z,99836.31
2022-09-16T00:25:56.150Z,99831.28
2022-09-16T00:28:24.068Z,99833.75
2022-09-16T00:30:51.388Z,99830.50
2022-09-16T00:33:20.090Z,99833.28
2022-09-16T00:35:47.705Z,99826.22
2022-09-16T00:38:15.071Z,99834.59
2022-09-16T00:40:48.004Z,99839.03
2022-09-16T00:43:19.807Z,99837.09
2022-09-16T00:46:00.033Z,99841.84
2022-09-16T00:48:30.526Z,99838.84
2022-09-16T00:51:07.703Z,99840.88
2022-09-16T00:53:52.039Z,99836.66
2022-09-16T00:56:23.864Z,99837.88
2022-09-16T00:59:20.649Z,99835.91
2022-09-16T01:01:48.241Z,99845.72
2022-09-16T01:04:26.377Z,99839.03
2022-09-16T01:06:54.071Z,99840.81
2022-09-16T01:09:25.643Z,99837.22
2022-09-16T01:11:52.622Z,99845.53
2022-09-16T01:14:40.832Z,99837.22
2022-09-16T01:17:41.279Z,99837.75
2022-09-16T01:20:29.834Z,99836.16
2022-09-16T01:23:59.859Z,99829.69
2022-09-16T01:27:29.643Z,99837.03
2022-09-16T01:30:44.533Z,99840.13
2022-09-16T01:33:44.985Z,99843.41
2022-09-16T01:36:37.172Z,99841.16
2022-09-16T01:40:00.013Z,99834.41
2022-09-16T01:43:06.441Z,99838.94
2022-09-16T01:45:50.317Z,99839.06
2022-09-16T01:48:43.715Z,99838.19
2022-09-16T01:51:31.712Z,99844.03
2022-09-16T01:54:20.688Z,99840.75
2022-09-16T01:57:03.401Z,99841.75
2022-09-16T01:59:46.345Z,99843.34
2022-09-16T02:02:53.335Z,99839.22
2022-09-16T02:05:37.245Z,99845.97
2022-09-16T02:08:15.051Z,99845.69
2022-09-16T02:10:49.905Z,99844.50
2022-09-16T02:13:26.370Z,99838.00
2022-09-16T02:15:58.381Z,99838.69
2022-09-16T02:18:35.195Z,99827.38
2022-09-16T02:21:08.402Z,99829.31
2022-09-16T02:23:45.384Z,99833.47
2022-09-16T02:26:21.734Z,99830.72
2022-09-16T02:28:52.073Z,99829.09
2022-09-16T02:31:26.377Z,99831.13
2022-09-16T02:34:34.411Z,99833.47
2022-09-16T02:37:11.827Z,99828.78
2022-09-16T02:39:44.467Z,99832.78
2022-09-16T02:42:11.675Z,99834.00
2022-09-16T02:44:38.832Z,99823.56
2022-09-16T02:47:45.216Z,99827.50
2022-09-16T02:50:40.125Z,99830.19
2022-09-16T02:54:04.905Z,99827.72
2022-09-16T02:56:39.277Z,99835.00
2022-09-16T02:59:11.405Z,99836.78
2022-09-16T03:01:43.610Z,99829.38
2022-09-16T03:04:16.982Z,99832.94
2022-09-16T03:06:44.014Z,99830.44
2022-09-16T03:09:13.839Z,99828.03
2022-09-16T03:12:17.802Z,99820.88
2022-09-16T03:15:27.224Z,99827.88
2022-09-16T03:18:21.198Z,99830.50
2022-09-16T03:21:46.496Z,99822.91
2022-09-16T03:24:30.032Z,99821.81
2022-09-16T03:27:10.153Z,99826.06
2022-09-16T03:30:18.907Z,99827.72
2022-09-16T03:33:09.710Z,99822.47
2022-09-16T03:35:50.312Z,99823.25
2022-09-16T03:38:19.329Z,99821.19
2022-09-16T03:40:48.378Z,99823.00
2022-09-16T03:43:17.513Z,99821.34
2022-09-16T03:45:45.211Z,99833.19
2022-09-16T03:48:16.850Z,99820.78
2022-09-16T03:50:47.189Z,99813.59
2022-09-16T03:53:14.146Z,99818.75
2022-09-16T03:55:41.111Z,99811.72
2022-09-16T03:58:08.041Z,99814.22
2022-09-16T04:00:35.239Z,99809.81
2022-09-16T04:03:02.242Z,99821.63
2022-09-16T04:05:29.433Z,99819.16
2022-09-16T04:07:56.445Z,99820.00
2022-09-16T04:10:23.385Z,99816.66
2022-09-16T04:12:50.386Z,99814.28
2022-09-16T04:15:17.370Z,99808.88
2022-09-16T04:17:44.300Z,99821.31
2022-09-16T04:20:11.505Z,99816.34
2022-09-16T04:22:38.507Z,99818.00
2022-09-16T04:25:06.326Z,99825.97
2022-09-16T04:27:33.522Z,99820.53
2022-09-16T04:30:00.582Z,99825.16
2022-09-16T04:32:27.518Z,99812.25
2022-09-16T04:34:55.348Z,99819.97
2022-09-16T04:37:22.337Z,99825.19
2022-09-16T04:39:49.340Z,99820.81
2022-09-16T04:42:16.324Z,99814.88
2022-09-16T04:44:44.729Z,99819.00
2022-09-16T04:47:11.831Z,99815.03
2022-09-16T04:49:38.761Z,99805.38
2022-09-16T04:52:05.867Z,99806.44
2022-09-16T04:54:32.924Z,99804.13
2022-09-16T04:57:01.137Z,99805.09
2022-09-16T04:59:28.094Z,99806.03
2022-09-16T05:01:55.217Z,99810.31
2022-09-16T05:04:22.932Z,99811.94
2022-09-16T05:06:52.065Z,99811.41
2022-09-16T05:09:22.170Z,99807.41
2022-09-16T05:11:49.668Z,99817.81
2022-09-16T05:14:18.820Z,99812.91
2022-09-16T05:16:46.437Z,99815.50
2022-09-16T05:19:15.031Z,99820.53
2022-09-16T05:21:43.160Z,99815.22
2022-09-16T05:24:14.954Z,99816.88
2022-09-16T05:26:43.331Z,99816.88
2022-09-16T05:29:17.424Z,99813.50
2022-09-16T05:31:47.454Z,99819.63
2022-09-16T05:34:22.299Z,99821.22
2022-09-16T05:36:50.711Z,99812.16
2022-09-16T05:39:25.862Z,99811.69
2022-09-16T05:41:59.769Z,99820.41
2022-09-16T05:44:29.051Z,99818.44
2022-09-16T05:46:56.414Z,99815.50
2022-09-16T05:49:24.185Z,99817.09
2022-09-16T05:51:52.138Z,99818.31
2022-09-16T05:54:20.317Z,99815.16
2022-09-16T05:56:48.326Z,99820.88
2022-09-16T05:59:17.590Z,99823.16
2022-09-16T06:01:45.465Z,99810.41
2022-09-16T06:04:15.545Z,99818.31
2022-09-16T06:06:46.134Z,99817.13
2022-09-16T06:09:24.125Z,99828.34
2022-09-16T06:11:59.381Z,99819.72
2022-09-16T06:14:28.870Z,99823.13
2022-09-16T06:16:56.491Z,99814.59
2022-09-16T06:19:23.796Z,99821.50
2022-09-16T06:21:50.870Z,99815.53
2022-09-16T06:24:19.722Z,99808.06
2022-09-16T06:26:49.425Z,99812.25
2022-09-16T06:29:17.686Z,99817.78
2022-09-16T06:31:44.862Z,99820.38
2022-09-16T06:34:18.498Z,99811.16
2022-09-16T06:36:46.955Z,99809.00
2022-09-16T06:39:18.113Z,99825.47
2022-09-16T06:41:45.931Z,99814.34
2022-09-16T06:44:13.029Z,99814.34
2022-09-16T06:46:40.182Z,99812.66
2022-09-16T06:49:07.296Z,99814.09
2022-09-16T06:51:36.529Z,99801.09
2022-09-16T06:54:07.473Z,99814.91
2022-09-16T06:56:37.626Z,99802.59
2022-09-16T06:59:05.507Z,99803.03
2022-09-16T07:01:33.933Z,99808.31
2022-09-16T07:04:13.540Z,99809.59
2022-09-16T07:09:28.350Z,99803.72
2022-09-16T07:11:55.549Z,99815.06
2022-09-16T07:14:23.189Z,99813.88
2022-09-16T07:16:50.186Z,99810.28
2022-09-16T07:19:17.229Z,99816.53
2022-09-16T07:21:44.974Z,99816.19
2022-09-16T07:24:14.214Z,99819.28
2022-09-16T07:26:43.320Z,99816.94
2022-09-16T07:29:18.116Z,99820.88
2022-09-16T07:31:45.218Z,99812.38
2022-09-16T07:34:13.903Z,99824.94
2022-09-16T07:36:47.020Z,99818.63
2022-09-16T07:39:17.955Z,99815.22
2022-09-16T07:41:48.656Z,99822.59
2022-09-16T07:44:19.294Z,99817.00
2022-09-16T07:46:46.506Z,99825.63
2022-09-16T07:49:14.997Z,99821.41
2022-09-16T07:51:43.032Z,99827.00
2022-09-16T07:54:16.644Z,99819.13
2022-09-16T07:56:44.940Z,99821.94
2022-09-16T07:59:19.305Z,99823.66
2022-09-16T08:01:49.572Z,99817.44
2022-09-16T08:04:19.431Z,99827.19
2022-09-16T08:06:46.670Z,99825.53
2022-09-16T08:09:37.912Z,99830.00
2022-09-16T08:12:07.996Z,99826.06
2022-09-16T08:14:35.191Z,99828.88
2022-09-16T08:17:03.992Z,99834.63
2022-09-16T08:19:30.955Z,99832.31
2022-09-16T08:21:58.366Z,99831.00
2022-09-16T08:24:25.436Z,99829.50
2022-09-16T08:26:52.488Z,99834.63
2022-09-16T08:29:19.548Z,99832.00
2022-09-16T08:31:46.578Z,99824.44
2022-09-16T08:34:13.783Z,99832.94
2022-09-16T08:36:40.872Z,99828.34
2022-09-16T08:39:09.202Z,99822.09
2022-09-16T08:42:25.538Z,99822.94
2022-09-16T08:45:40.057Z,99828.34
2022-09-16T08:48:31.925Z,99827.84
2022-09-16T08:51:02.272Z,99825.41
2022-09-16T08:54:01.437Z,99812.47
2022-09-16T08:56:35.453Z,99821.09
2022-09-16T08:59:10.259Z,99822.72
2022-09-16T09:02:00.473Z,99829.63
2022-09-16T09:04:31.374Z,99827.38
2022-09-16T09:07:26.827Z,99834.22
2022-09-16T09:10:49.135Z,99828.56
2022-09-16T09:14:03.879Z,99824.44
2022-09-16T09:16:49.068Z,99816.38
2022-09-16T09:20:06.599Z,99817.44
2022-09-16T09:23:29.252Z,99818.47
2022-09-16T09:26:08.056Z,99813.38
2022-09-16T09:29:46.513Z,99797.53
2022-09-16T09:32:49.099Z,99807.03
2022-09-16T09:35:33.112Z,99813.00
2022-09-16T09:38:45.264Z,99811.34
2022-09-16T09:41:47.880Z,99799.13
2022-09-16T09:44:51.819Z,99807.09
2022-09-16T09:48:13.475Z,99801.72
2022-09-16T09:50:49.819Z,99800.06
2022-09-16T09:53:41.709Z,99797.44
2022-09-16T09:56:25.181Z,99796.91
2022-09-16T09:59:22.656Z,99797.31
2022-09-16T10:02:01.057Z,99787.09
2022-09-16T10:04:38.308Z,99788.81
2022-09-16T10:07:07.418Z,99790.66
2022-09-16T10:09:37.015Z,99783.31
2022-09-16T10:12:05.371Z,99783.75
2022-09-16T10:14:38.062Z,99781.09
2022-09-16T10:17:16.836Z,99787.28
2022-09-16T10:20:07.163Z,99776.97
2022-09-16T10:22:36.182Z,99786.50
2022-09-16T10:25:25.225Z,99780.56
2022-09-16T10:28:02.894Z,99774.16
2022-09-16T10:30:42.175Z,99777.09
2022-09-16T10:33:23.619Z,99766.91
2022-09-16T10:36:03.975Z,99763.03
2022-09-16T10:38:51.701Z,99758.38
2022-09-16T10:41:26.813Z,99774.47
2022-09-16T10:44:41.267Z,99764.03
2022-09-16T10:47:28.952Z,99757.78
2022-09-16T10:50:05.028Z,99769.44
2022-09-16T10:52:44.688Z,99772.09
2022-09-16T10:55:36.569Z,99762.00
2022-09-16T10:58:16.283Z,99747.31
2022-09-16T11:01:56.396Z,99748.00
2022-09-16T11:04:59.821Z,99758.09
2022-09-16T11:07:47.388Z,99758.06
2022-09-16T11:10:48.713Z,99765.41
2022-09-16T11:14:02.144Z,99761.31
2022-09-16T11:17:05.777Z,99758.84
2022-09-16T11:20:17.603Z,99754.06
2022-09-16T11:23:29.155Z,99747.81
2022-09-16T11:26:23.356Z,99760.41
2022-09-16T11:29:40.555Z,99752.84
2022-09-16T11:32:54.775Z,99744.38
2022-09-16T11:35:52.661Z,99736.63
2022-09-16T11:39:04.016Z,99751.38
2022-09-16T11:42:04.611Z,99733.06
2022-09-16T11:44:49.484Z,99742.91
2022-09-16T11:47:50.056Z,99743.78
2022-09-16T11:50:44.139Z,99733.69
2022-09-16T11:53:59.242Z,99742.50
2022-09-16T11:56:48.256Z,99735.28
2022-09-16T11:59:57.432Z,99735.59
2022-09-16T12:03:10.753Z,99729.25
2022-09-16T12:05:53.558Z,99722.28
2022-09-16T12:08:50.521Z,99724.19
2022-09-16T12:11:24.661Z,99723.81
2022-09-16T12:14:05.960Z,99720.94
2022-09-16T12:16:52.037Z,99712.97
2022-09-16T12:19:35.609Z,99707.31
2022-09-16T12:22:16.150Z,99693.66
2022-09-16T12:25:03.493Z,99707.75
2022-09-16T12:27:50.052Z,99705.69
2022-09-16T12:30:27.327Z,99702.50
2022-09-16T12:33:29.022Z,99698.19
2022-09-16T12:36:20.422Z,99706.00
2022-09-16T12:38:53.475Z,99699.78
2022-09-16T12:41:51.771Z,99695.72
2022-09-16T12:44:35.634Z,99691.97
2022-09-16T12:47:35.569Z,99692.53
2022-09-16T12:50:49.784Z,99686.94
2022-09-16T12:53:52.728Z,99677.47
2022-09-16T12:56:42.828Z,99668.84
2022-09-16T12:59:24.377Z,99673.34
2022-09-16T13:02:00.726Z,99667.19
2022-09-16T13:04:45.225Z,99676.84
2022-09-16T13:07:35.496Z,99665.59
2022-09-16T13:10:26.419Z,99669.44
2022-09-16T13:13:05.125Z,99673.88
2022-09-16T13:15:40.000Z,99671.44
2022-09-16T13:18:16.670Z,99672.06
2022-09-16T13:21:05.564Z,99666.06
2022-09-16T13:23:40.227Z,99663.53
2022-09-16T13:26:09.817Z,99650.22
2022-09-16T13:28:44.139Z,99661.13
2022-09-16T13:31:14.336Z,99656.63
2022-09-16T13:34:15.449Z,99650.94
2022-09-16T13:36:42.532Z,99645.66
2022-09-16T13:39:30.858Z,99638.44
2022-09-16T13:42:09.474Z,99639.88
2022-09-16T13:44:42.321Z,99632.19
2022-09-16T13:47:12.218Z,99634.63
2022-09-16T13:49:52.772Z,99642.06
2022-09-16T13:52:28.808Z,99646.75
2022-09-16T13:55:10.576Z,99631.47
2022-09-16T13:58:29.439Z,99637.56
2022-09-16T14:01:42.216Z,99636.34
2022-09-16T14:05:03.919Z,99637.97
2022-09-16T14:08:25.741Z,99627.81
2022-09-16T14:11:22.446Z,99636.06
2022-09-16T14:14:46.189Z,99632.31
2022-09-16T14:17:51.358Z,99634.41
2022-09-16T14:20:24.530Z,99632.00
2022-09-16T14:23:26.481Z,99627.84
2022-09-16T14:25:55.492Z,99633.22
2022-09-16T14:28:27.883Z,99626.91
2022-09-16T14:31:01.184Z,99630.19
2022-09-16T14:33:46.054Z,99632.25
2022-09-16T14:36:37.705Z,99619.63
2022-09-16T14:39:07.557Z,99619.22
2022-09-16T14:41:56.002Z,99625.75
2022-09-16T14:44:51.344Z,99614.69
2022-09-16T14:47:51.346Z,99617.09
2022-09-16T14:50:38.848Z,99611.63
2022-09-16T14:53:35.367Z,99616.53
2022-09-16T14:56:04.825Z,99620.78
2022-09-16T14:58:34.040Z,99614.25
2022-09-16T15:01:18.225Z,99610.63
2022-09-16T15:04:14.626Z,99617.53
2022-09-16T15:06:52.837Z,99613.72
2022-09-16T15:10:04.605Z,99606.28
2022-09-16T15:13:02.723Z,99609.63
2022-09-16T15:15:33.263Z,99608.44
2022-09-16T15:18:24.335Z,99609.94
2022-09-16T15:21:09.540Z,99612.84
2022-09-16T15:23:42.979Z,99600.56
2022-09-16T15:26:38.552Z,99599.13
2022-09-16T15:29:20.670Z,99601.84
2022-09-16T15:31:48.375Z,99600.13
2022-09-16T15:34:20.824Z,99598.50
2022-09-16T15:36:54.998Z,99603.94
2022-09-16T15:39:38.363Z,99603.16
2022-09-16T15:42:21.051Z,99612.44
2022-09-16T15:44:57.877Z,99615.56
2022-09-16T15:47:39.942Z,99613.63
2022-09-16T15:50:20.019Z,99614.63
2022-09-16T15:53:29.491Z,99601.34
2022-09-16T15:56:58.874Z,99606.28
2022-09-16T15:59:36.641Z,99602.28
2022-09-16T16:02:24.887Z,99602.53
2022-09-16T16:04:52.496Z,99612.41
2022-09-16T16:07:54.656Z,99614.78
2022-09-16T16:10:35.174Z,99605.97
2022-09-16T16:13:04.558Z,99603.63
2022-09-16T16:15:36.051Z,99604.72
2022-09-16T16:18:10.649Z,99599.28
2022-09-16T16:20:38.898Z,99597.66
2022-09-16T16:23:06.244Z,99604.81
2022-09-16T16:25:34.026Z,99603.72
2022-09-16T16:28:01.206Z,99597.00
2022-09-16T16:30:28.146Z,99595.94
2022-09-16T16:32:55.104Z,99591.59
2022-09-16T16:35:22.095Z,99589.41
2022-09-16T16:37:49.119Z,99593.94
2022-09-16T16:40:16.294Z,99591.47
2022-09-16T16:42:44.503Z,99589.19
2022-09-16T16:45:13.590Z,99585.44
2022-09-16T16:47:41.592Z,99592.66
2022-09-16T16:50:09.546Z,99587.50
2022-09-16T16:52:36.869Z,99594.69
2022-09-16T16:55:04.831Z,99598.44
2022-09-16T16:57:32.196Z,99588.44
2022-09-16T16:59:59.194Z,99598.59
2022-09-16T17:02:26.322Z,99589.88
2022-09-16T17:04:53.339Z,99582.00
2022-09-16T17:07:28.206Z,99585.75
2022-09-16T17:09:58.979Z,99594.78
2022-09-16T17:12:26.867Z,99591.34
2022-09-16T17:14:53.995Z,99588.41
2022-09-16T17:17:20.950Z,99590.88
2022-09-16T17:19:48.140Z,99583.66
2022-09-16T17:22:15.892Z,99586.84
2022-09-16T17:24:42.853Z,99588.69
2022-09-16T17:27:09.896Z,99594.34
2022-09-16T17:29:36.921Z,99595.53
2022-09-16T17:32:04.096Z,99600.13
2022-09-16T17:34:31.301Z,99607.63
2022-09-16T17:36:58.543Z,99602.25
2022-09-16T17:39:26.041Z,99596.09
2022-09-16T17:41:56.492Z,99608.50
2022-09-16T17:44:23.558Z,99602.47
2022-09-16T17:46:50.687Z,99610.38
2022-09-16T17:49:24.243Z,99610.06
2022-09-16T17:51:53.496Z,99608.94
2022-09-16T17:54:21.832Z,99610.50
2022-09-16T17:56:48.949Z,99604.25
2022-09-16T17:59:18.829Z,99598.97
2022-09-16T18:01:46.329Z,99599.03
2022-09-16T18:04:13.679Z,99601.31
2022-09-16T18:06:44.924Z,99590.47
2022-09-16T18:09:13.325Z,99594.84
2022-09-16T18:11:40.618Z,99597.72
2022-09-16T18:14:12.039Z,99599.19
2022-09-16T18:16:39.914Z,99601.50
2022-09-16T18:19:10.257Z,99599.03
2022-09-16T18:21:40.787Z,99601.66
2022-09-16T18:24:12.935Z,99603.59
2022-09-16T18:26:42.166Z,99603.69
2022-09-16T18:29:19.003Z,99596.50
2022-09-16T18:31:48.801Z,99593.38
2022-09-16T18:34:17.655Z,99592.56
2022-09-16T18:36:45.303Z,99593.72
2022-09-16T18:39:17.105Z,99596.50
2022-09-16T18:41:45.769Z,99589.81
2022-09-16T18:44:23.911Z,99594.78
2022-09-16T18:46:52.684Z,99609.88
2022-09-16T18:49:22.170Z,99598.03
2022-09-16T18:51:52.426Z,99604.66
2022-09-16T18:54:33.365Z,99607.47
2022-09-16T18:57:01.963Z,99615.53
2022-09-16T18:59:32.818Z,99609.31
2022-09-16T19:02:03.590Z,99612.06
2022-09-16T19:04:37.362Z,99601.81
2022-09-16T19:07:08.495Z,99609.97
2022-09-16T19:09:40.859Z,99608.41
2022-09-16T19:12:13.012Z,99597.47
2022-09-16T19:14:40.975Z,99602.00
2022-09-16T19:17:08.526Z,99598.63
2022-09-16T19:19:35.642Z,99601.78
2022-09-16T19:22:05.641Z,99607.38
2022-09-16T19:24:33.750Z,99603.59
2022-09-16T19:27:00.677Z,99599.81
2022-09-16T19:29:27.709Z,99601.63
2022-09-16T19:31:54.679Z,99602.47
2022-09-16T19:34:22.518Z,99593.75
2022-09-16T19:36:50.206Z,99601.63
2022-09-16T19:39:17.659Z,99592.94
2022-09-16T19:41:47.145Z,99603.69
2022-09-16T19:44:20.505Z,99597.50
2022-09-16T19:46:49.105Z,99595.28
2022-09-16T19:49:21.036Z,99597.28
2022-09-16T19:51:50.045Z,99603.53
2022-09-16T19:54:18.086Z,99598.97
2022-09-16T19:56:50.321Z,99600.13
2022-09-16T19:59:19.024Z,99598.75
2022-09-16T20:01:46.635Z,99596.63
2022-09-16T20:04:14.837Z,99593.31
2022-09-16T20:06:42.715Z,99589.53
2022-09-16T20:09:12.936Z,99573.47
2022-09-16T20:11:45.386Z,99566.38
2022-09-16T20:14:23.783Z,99561.78
2022-09-16T20:16:51.907Z,99555.38
2022-09-16T20:19:24.851Z,99552.06
2022-09-16T20:21:51.973Z,99542.09
2022-09-16T20:24:23.545Z,99540.31
2022-09-16T20:26:57.349Z,99546.81
2022-09-16T20:29:33.648Z,99547.06
2022-09-16T20:32:00.972Z,99546.00
2022-09-16T20:34:28.317Z,99536.25
2022-09-16T20:36:55.276Z,99541.19
2022-09-16T20:39:24.539Z,99529.38
2022-09-16T20:41:52.735Z,99535.78
2022-09-16T20:44:20.002Z,99531.81
2022-09-16T20:46:48.994Z,99530.91
2022-09-16T20:49:19.814Z,99527.59
2022-09-16T20:51:50.268Z,99527.59
2022-09-16T20:54:20.675Z,99520.03
2022-09-16T20:56:49.378Z,99511.78
2022-09-16T20:59:20.257Z,99517.03
2022-09-16T21:01:48.545Z,99519.25
2022-09-16T21:04:20.263Z,99515.69
2022-09-16T21:06:47.366Z,99523.25
2022-09-16T21:09:16.413Z,99515.38
2022-09-16T21:11:52.862Z,99523.34
2022-09-16T21:14:22.181Z,99514.53
2022-09-16T21:16:49.414Z,99514.56
2022-09-16T21:19:17.899Z,99511.50
2022-09-16T21:21:48.632Z,99507.75
2022-09-16T21:24:16.322Z,99506.97
2022-09-16T21:26:44.877Z,99515.72
2022-09-16T21:29:21.269Z,99513.28
2022-09-16T21:31:51.918Z,99514.47
2022-09-16T21:34:24.750Z,99511.69
2022-09-16T21:36:52.695Z,99518.97
2022-09-16T21:39:21.074Z,99508.50
2022-09-16T21:41:48.716Z,99512.41
2022-09-16T21:44:16.481Z,99517.25
2022-09-16T21:46:46.264Z,99509.53
2022-09-16T21:49:29.114Z,99508.00
2022-09-16T21:51:58.739Z,99512.75
2022-09-16T21:54:26.682Z,99505.22
2022-09-16T21:56:56.063Z,99511.78
2022-09-16T21:59:25.918Z,99519.72
2022-09-16T22:02:05.403Z,99509.53
2022-09-16T22:04:32.541Z,99515.38
2022-09-16T22:06:59.590Z,99521.69
2022-09-16T22:09:26.544Z,99509.03
2022-09-16T22:11:59.188Z,99510.63
2022-09-16T22:14:27.017Z,99506.28
2022-09-16T22:16:53.967Z,99519.44
2022-09-16T22:19:23.942Z,99522.13
2022-09-16T22:21:51.646Z,99521.13
2022-09-16T22:24:22.254Z,99526.59
2022-09-16T22:26:56.428Z,99535.94
2022-09-16T22:29:24.615Z,99549.72
2022-09-16T22:31:51.821Z,99550.03
2022-09-16T22:34:19.007Z,99553.31
2022-09-16T22:36:46.736Z,99546.69
2022-09-16T22:39:19.475Z,99548.09
2022-09-16T22:41:47.850Z,99550.00
2022-09-16T22:44:15.262Z,99539.88
2022-09-16T22:46:49.686Z,99545.28
2022-09-16T22:49:17.007Z,99545.91
2022-09-16T22:51:49.534Z,99552.44
2022-09-16T22:54:16.791Z,99557.38
2022-09-16T22:56:44.740Z,99544.34
2022-09-16T22:59:21.120Z,99546.41
2022-09-16T23:01:48.820Z,99556.97
2022-09-16T23:04:16.449Z,99550.09
2022-09-16T23:06:43.627Z,99556.06
2022-09-16T23:09:13.959Z,99556.41
2022-09-16T23:11:43.752Z,99561.00
2022-09-16T23:14:21.669Z,99558.97
2022-09-16T23:16:48.996Z,99557.72
2022-09-16T23:19:15.931Z,99559.50
2022-09-16T23:21:43.126Z,99562.88
2022-09-16T23:24:21.904Z,99569.50
2022-09-16T23:26:49.668Z,99567.94
2022-09-16T23:29:18.307Z,99573.31
2022-09-16T23:31:45.593Z,99565.97
2022-09-16T23:34:21.663Z,99569.31
2022-09-16T23:37:04.646Z,99572.84
2022-09-16T23:39:31.729Z,99577.81
2022-09-16T23:42:01.439Z,99578.22
2022-09-16T23:44:39.936Z,99575.88
2022-09-16T23:47:09.974Z,99577.28
2022-09-16T23:49:40.693Z,99577.78
2022-09-16T23:52:08.350Z,99579.53
2022-09-16T23:54:36.194Z,99587.94
2022-09-16T23:57:03.219Z,99582.25
2022-09-16T23:59:30.422Z,99580.88
